Airfield :
LOGIN :

Register | Disclaimer

   EN    FR    IT 

 










Legend :    VFR   Marginal VFR   IFR   Intensive IFR   Very Intensive IFR
Visi :
Ceiling :
>= 8 km
>= 3000ft
5 to 8 km
1000 to 3000 ft
1500m to 5 km
500 to 1000 ft
800 to 1500m
200 to 500 ft
< 800m
< 200 ft
Symbols :   Thunderstorms  Fog  Heavy snow  Heavy precipitations  Wind > 20 kt
SIGMETs :     Misc.  Thunderstorms  Icing  Turbulence  Mountain Waves  Volcanic Ashes







- Airport Elevation : 38 ft
- IATA code : BOH
- Download approach charts


EGHH - Bournemouth

CURRENT METAR :
  • 240820Z 25008KT 9999 BKN007 17/17 Q1015

EXPIRED METARs :
  • 240750Z 26010KT 9999 BKN007 17/16 Q1015
  • 240720Z 26009KT 9999 BKN007 17/16 Q1015
  • 240650Z 25011KT 9999 4000W -RA BKN007 17/16 Q1015
  • 240620Z 25010KT 9999 BKN007 17/16 Q1015
  • 240550Z 25010KT 9999 BKN007 16/15 Q1015
  • 240520Z 25012KT 9999 BKN006 BKN014 16/15 Q1015

TAF TAF EGHH
Valid from the 24 at 06:00 until the 24 at 15:00 UTC


240527Z 2406/2415 24010KT 9999 BKN006
BECMG 2406/2409 BKN020
PROB30
TEMPO 2406/2415 5000 -RADZ BKN008
ATIS : +44 1202 364 151
Met : +44 1202 364 158 (TAF)
No reported NOTAMs for that airfield.



MET'MAP, your aeronautical weather chart ! - Copyright ORBIFLY December 2007 - Disclaimer

ORBIFLY MET'MAP TEAM :

Programming & Development : Alexandra Zaïnal
Concept & Development : Baudouin d'Aumeries
Co-Development & Prog : Marc-Olivier Méhu
Technical & hardware support : Manuel Goepfert

Contact : metmap@orbifly.com




SOURCES & CREDITS :

   NOAA